Flight Track Log - Related Links

Times and Time Zones

All times are in EDT time to prevent confusion due to time zone crossing. See the SKW5646 flight status page for this flight to view local times or setup timezone preferences in your user account.

Time Position Orientation Groundspeed Altitude Reporting Facility
EDT Latitude Longitude Course Direction KTS MPH feet Rate Location/Type
Mon 04:00:20 PM 34.4239 -119.8117 105° East 155 178 1,200  Level Los Angeles Center
Mon 04:01:22 PM 34.3933 -119.8422 220° Southwest 253 291 2,400 1,306 Climbing Los Angeles Center
Mon 04:02:24 PM 34.3892 -119.9089 266° West 221 254 3,900 1,306 Climbing Los Angeles Center
Mon 04:03:00 PM 34.5103 -120.0684 298° West  Level FlightAware Approximate
Mon 04:03:26 PM 34.3858 -119.9761 267° West 202 232 5,100  Level Los Angeles Center
Mon 04:04:00 PM 34.5613 -120.1280 321° Northwest  Level FlightAware Approximate
Mon 04:04:28 PM 34.3775 -120.0617 263° West 212 244 6,900  Level Los Angeles Center
Mon 04:05:00 PM 34.6184 -120.1805 328° Northwest  Level FlightAware Approximate
Mon 04:05:30 PM 34.4081 -120.1186 303° West 209 241 8,400  Level Los Angeles Center
Mon 04:07:20 PM 34.4967 -120.1819 330° Northwest 206 237 10,700 1,263 Climbing Oakland Center
Mon 04:08:21 PM 34.5433 -120.2217 325° Northwest 206 237 12,000 1,247 Climbing Oakland Center
Mon 04:08:37 PM 34.5519 -120.2314 317° Northwest 206 237 12,300 1,077 Climbing Los Angeles Center
Mon 04:09:39 PM 34.5997 -120.2697 327° Northwest 212 244 13,400 1,161 Climbing Los Angeles Center
Mon 04:10:41 PM 34.6592 -120.3183 326° Northwest 215 247 14,700 1,113 Climbing Los Angeles Center
Mon 04:11:43 PM 34.7078 -120.3606 324° Northwest 216 249 15,700 1,016 Climbing Los Angeles Center
Mon 04:12:45 PM 34.7567 -120.4031 324° Northwest 218 251 16,800 1,065 Climbing Los Angeles Center
Mon 04:13:47 PM 34.8097 -120.4478 325° Northwest 217 250 17,900 968 Climbing Los Angeles Center
Mon 04:14:49 PM 34.8542 -120.4858 325° Northwest 214 246 18,800 919 Climbing Los Angeles Center
Mon 04:15:51 PM 34.9125 -120.5342 326° Northwest 213 245 19,800 871 Climbing Los Angeles Center
Mon 04:16:53 PM 34.9625 -120.5778 324° Northwest 220 253 20,600 816 Climbing Los Angeles Center
Mon 04:17:56 PM 35.0142 -120.6228 325° Northwest 227 261 21,500 864 Climbing Los Angeles Center
Mon 04:18:58 PM 35.0650 -120.6669 325° Northwest 226 260 22,400 823 Climbing Los Angeles Center
Mon 04:20:00 PM 35.1169 -120.7122 325° Northwest 230 265 23,200 774 Climbing Los Angeles Center
Mon 04:21:02 PM 35.1789 -120.7633 326° Northwest 225 259 24,000 387 Climbing Los Angeles Center
Mon 04:22:04 PM 35.2350 -120.8119 325° Northwest 246 283 24,000  Level Los Angeles Center
Mon 04:23:06 PM 35.2928 -120.8628 324° Northwest 256 295 24,000  Level Los Angeles Center
Mon 04:24:08 PM 35.3514 -120.9133 325° Northwest 257 296 24,000  Level Los Angeles Center
Mon 04:24:42 PM 35.3822 -120.9414 323° Northwest 256 295 24,000  Level Oakland Center
Mon 04:25:44 PM 35.4417 -120.9928 325° Northwest 261 300 24,000  Level Oakland Center
Mon 04:26:45 PM 35.5133 -121.0547 325° Northwest 260 299 24,000  Level Oakland Center
Mon 04:27:46 PM 35.5731 -121.1075 324° Northwest 262 302 24,000 -49 Level Oakland Center
Mon 04:28:48 PM 35.6336 -121.1597 325° Northwest 264 304 23,900  Descending Oakland Center
Mon 04:29:49 PM 35.6942 -121.2133 324° Northwest 265 305 24,000 49 Climbing Oakland Center
Mon 04:30:50 PM 35.7525 -121.2675 323° Northwest 261 300 24,000  Level Oakland Center
Mon 04:31:52 PM 35.8153 -121.3206 326° Northwest 273 314 24,000  Level Oakland Center
Mon 04:32:53 PM 35.8767 -121.3731 325° Northwest 267 307 24,000  Level Oakland Center
Mon 04:33:54 PM 35.9350 -121.4289 322° Northwest 265 305 24,000  Level Oakland Center
Mon 04:34:56 PM 35.9969 -121.4817 325° Northwest 269 310 24,000  Level Oakland Center
Mon 04:35:57 PM 36.0572 -121.5350 324° Northwest 266 306 24,000  Level Oakland Center
Mon 04:36:58 PM 36.1292 -121.6008 324° Northwest 268 308 24,000 -49 Level Oakland Center
Mon 04:38:00 PM 36.1914 -121.6511 327° Northwest 266 306 23,900 -537 Descending Oakland Center
Mon 04:39:01 PM 36.2633 -121.6897 337° Northwest 277 319 22,900 -934 Descending Oakland Center
Mon 04:40:02 PM 36.3425 -121.7286 338° Northwest 298 343 22,000 -1,000 Descending Oakland Center
Mon 04:40:49 PM 36.4000 -121.7667 332° Northwest 288 331 21,100 -1,132 Descending Northern Cal TRACON
Mon 04:41:48 PM 36.4833 -121.8000 342° North 291 335 20,000 -1,059 Descending Northern Cal TRACON
Mon 04:42:48 PM 36.5500 -121.8333 338° Northwest 286 329 19,000 -1,050 Descending Northern Cal TRACON
Mon 04:43:48 PM 36.6167 -121.8667 338° Northwest 286 329 17,900 -1,000 Descending Northern Cal TRACON
Mon 04:44:48 PM 36.7000 -121.9167 334° Northwest 281 323 17,000 -1,000 Descending Northern Cal TRACON
Mon 04:45:48 PM 36.7667 -121.9500 338° Northwest 287 330 15,900 -1,250 Descending Northern Cal TRACON
Mon 04:46:48 PM 36.8500 -121.9833 342° North 301 346 14,500 -1,400 Descending Northern Cal TRACON
Mon 04:47:48 PM 36.9167 -122.0333 329° Northwest 301 346 13,100 -1,341 Descending Northern Cal TRACON
Mon 04:48:13 PM 36.9431 -122.0414 346° North 299 344 12,600 -1,186 Descending Oakland Center
Mon 04:49:14 PM 37.0219 -122.0717 343° North 296 341 11,400 -1,220 Descending Oakland Center
Mon 04:50:16 PM 37.1000 -122.0953 346° North 288 331 10,100 -1,220 Descending Oakland Center
Mon 04:51:17 PM 37.1747 -122.1206 345° North 278 320 8,900 -1,279 Descending Oakland Center
Mon 04:52:18 PM 37.2617 -122.1511 344° North 270 311 7,500 -1,268 Descending Oakland Center
Mon 04:53:20 PM 37.3328 -122.1744 345° North 263 303 6,300 -1,317 Descending Oakland Center
Mon 04:54:21 PM 37.4033 -122.1992 344° North 263 303 4,800 -1,230 Descending Oakland Center
Mon 04:55:22 PM 37.4711 -122.2206 346° North 257 296 3,800 -780 Descending Oakland Center
Mon 04:56:24 PM 37.5275 -122.2172 North 231 266 3,200 -581 Descending Oakland Center

Login

Don't have an account? Register now (free) for customized features, flight alerts, and more!